Time;durP1;ratioP1;P1;durP2;ratioP2;P2;SDS_P1;SDS_P2;PMS_P1;PMS_P2;Temp;Humidity;BMP_temperature;BMP_pressure;BME280_temperature;BME280_humidity;BME280_pressure;Samples;Min_cycle;Max_cycle;Signal;HPM_P1;HPM_P2
2023/02/12 00:01:32;;;;;;;37.30;22.40;;;;;;;2.59;80.44;98289.12;108994;1251;100138;-73
2023/02/12 00:04:01;;;;;;;32.70;21.40;;;;;;;2.58;80.43;98288.80;109014;1250;95957;-72
2023/02/12 00:06:29;;;;;;;36.80;22.60;;;;;;;2.59;80.48;98291.05;108980;1251;95976;-71
2023/02/12 00:08:58;;;;;;;36.00;22.10;;;;;;;2.59;80.50;98292.11;109007;1251;103327;-72
2023/02/12 00:11:29;;;;;;;36.90;23.80;;;;;;;2.60;80.52;98287.96;108914;1251;101140;-73
2023/02/12 00:13:58;;;;;;;39.70;23.20;;;;;;;2.59;80.54;98287.65;108725;1251;99606;-72
2023/02/12 00:16:28;;;;;;;37.70;21.70;;;;;;;2.59;80.62;98286.64;108774;1251;95716;-71
2023/02/12 00:18:58;;;;;;;30.70;20.30;;;;;;;2.60;80.73;98290.63;108974;1250;97143;-72
2023/02/12 00:21:26;;;;;;;32.10;20.90;;;;;;;2.61;80.86;98289.29;108792;1251;103520;-71
2023/02/12 00:23:54;;;;;;;32.60;21.50;;;;;;;2.61;80.84;98292.06;108690;1251;101577;-72
2023/02/12 00:26:23;;;;;;;33.10;21.60;;;;;;;2.62;80.82;98297.70;108842;1251;99976;-73
2023/02/12 00:28:52;;;;;;;33.30;20.50;;;;;;;2.62;80.86;98300.88;108965;1250;95578;-73
2023/02/12 00:31:26;;;;;;;31.80;21.60;;;;;;;2.63;80.83;98296.36;109037;1250;95996;-71
2023/02/12 00:33:55;;;;;;;38.80;23.80;;;;;;;2.64;80.86;98299.96;108671;1250;103359;-74
2023/02/12 00:36:26;;;;;;;39.20;23.40;;;;;;;2.66;80.87;98299.24;108877;1251;100375;-71
2023/02/12 00:38:56;;;;;;;34.90;22.30;;;;;;;2.69;80.95;98302.16;108994;1250;100000;-71
2023/02/12 00:41:25;;;;;;;36.80;23.40;;;;;;;2.71;80.96;98305.05;108990;1251;95618;-72
2023/02/12 00:43:54;;;;;;;30.70;20.20;;;;;;;2.70;80.84;98308.34;108909;1251;95996;-71
2023/02/12 00:46:22;;;;;;;32.40;19.80;;;;;;;2.69;80.90;98305.53;109032;1251;103333;-71
2023/02/12 00:48:50;;;;;;;29.50;19.20;;;;;;;2.70;80.84;98308.67;108950;1249;101308;-71
2023/02/12 00:51:18;;;;;;;31.70;20.70;;;;;;;2.70;80.83;98311.34;108854;1254;99193;-74
2023/02/12 00:53:46;;;;;;;28.70;19.70;;;;;;;2.71;81.07;98313.92;108955;1249;95589;-72
2023/02/12 00:56:15;;;;;;;34.40;21.40;;;;;;;2.72;80.98;98313.78;108739;1250;96076;-74
2023/02/12 00:58:43;;;;;;;33.10;21.60;;;;;;;2.73;81.00;98315.14;108990;1249;103535;-74
2023/02/12 01:01:11;;;;;;;33.80;22.80;;;;;;;2.75;81.06;98318.17;108648;1251;101585;-74
2023/02/12 01:03:40;;;;;;;33.00;21.30;;;;;;;2.77;80.95;98315.80;108960;1250;100064;-71
2023/02/12 01:06:08;;;;;;;32.40;22.30;;;;;;;2.76;80.82;98312.38;108986;1250;95547;-73
2023/02/12 01:08:36;;;;;;;35.30;22.00;;;;;;;2.74;80.81;98310.96;109039;1249;96302;-73
2023/02/12 01:11:05;;;;;;;34.00;21.90;;;;;;;2.70;80.77;98308.70;109057;1250;103182;-74
2023/02/12 01:13:35;;;;;;;36.80;21.70;;;;;;;2.69;80.90;98306.84;109026;1250;101050;-73
2023/02/12 01:16:24;;;;;;;34.10;21.10;;;;;;;2.69;80.90;98309.45;108823;1251;99718;-71
2023/02/12 01:18:54;;;;;;;32.20;20.50;;;;;;;2.69;81.01;98312.66;109060;1250;95569;-71
2023/02/12 01:21:29;;;;;;;31.90;20.70;;;;;;;2.66;80.84;98312.60;109033;1250;95954;-71
2023/02/12 01:23:58;;;;;;;34.80;21.20;;;;;;;2.63;80.89;98317.33;108700;1251;102996;-71
2023/02/12 01:26:28;;;;;;;33.40;21.60;;;;;;;2.61;81.01;98313.75;109058;1249;101060;-72
2023/02/12 01:29:00;;;;;;;31.30;20.70;;;;;;;2.60;80.93;98314.73;108997;1251;99989;-74
2023/02/12 01:31:32;;;;;;;35.50;22.40;;;;;;;2.59;80.80;98314.45;109000;1250;95652;-71
2023/02/12 01:34:01;;;;;;;36.00;22.50;;;;;;;2.59;80.78;98315.77;109044;1249;95630;-71
2023/02/12 01:36:30;;;;;;;32.30;20.90;;;;;;;2.59;80.83;98314.88;109042;1250;103341;-72
2023/02/12 01:39:01;;;;;;;34.20;21.20;;;;;;;2.59;80.87;98318.05;108711;1251;101221;-72
2023/02/12 01:41:42;;;;;;;42.80;24.00;;;;;;;2.59;80.82;98322.65;108676;1250;108630;-74
2023/02/12 01:44:19;;;;;;;34.30;21.40;;;;;;;2.58;80.86;98322.98;108654;1251;95608;-72
2023/02/12 01:46:59;;;;;;;32.60;20.40;;;;;;;2.57;80.89;98328.36;108838;1251;96182;-73
2023/02/12 01:49:39;;;;;;;30.80;18.80;;;;;;;2.56;80.89;98327.16;109082;1250;103176;-73
2023/02/12 01:52:18;;;;;;;28.90;18.00;;;;;;;2.57;80.87;98332.04;109023;1250;101593;-73
2023/02/12 01:54:48;;;;;;;22.90;15.00;;;;;;;2.60;81.06;98338.23;108990;1250;100147;-72
2023/02/12 01:57:18;;;;;;;23.50;16.20;;;;;;;2.61;81.16;98347.51;109011;1250;95968;-72
2023/02/12 01:59:51;;;;;;;28.10;17.40;;;;;;;2.63;81.33;98343.85;109001;1250;95910;-72
2023/02/12 02:02:19;;;;;;;26.70;17.60;;;;;;;2.64;81.35;98342.50;109034;1250;103177;-72
2023/02/12 02:04:53;;;;;;;27.40;17.20;;;;;;;2.63;81.35;98341.18;109047;1250;101288;-71
2023/02/12 02:07:21;;;;;;;26.60;16.60;;;;;;;2.65;81.45;98340.56;108983;1250;100065;-72
2023/02/12 02:09:50;;;;;;;27.70;18.50;;;;;;;2.66;81.38;98343.68;108994;1250;95602;-72
2023/02/12 02:15:05;;;;;;;27.30;17.40;;;;;;;2.67;81.54;98348.38;108727;1250;102555;-74
2023/02/12 02:17:56;;;;;;;25.10;17.50;;;;;;;2.69;81.53;98356.77;109024;1250;101368;-72
2023/02/12 02:20:33;;;;;;;30.10;18.70;;;;;;;2.71;81.69;98364.23;109018;1250;99864;-72
2023/02/12 02:23:20;;;;;;;29.10;18.20;;;;;;;2.71;81.55;98365.42;108998;1250;95814;-71
2023/02/12 02:26:26;;;;;;;26.90;17.70;;;;;;;2.73;81.71;98368.63;109020;1250;96512;-72
2023/02/12 02:28:54;;;;;;;26.80;17.40;;;;;;;2.73;81.49;98371.15;109044;1250;103733;-74
2023/02/12 02:31:30;;;;;;;25.80;17.00;;;;;;;2.72;81.40;98375.64;109021;1250;101252;-74
2023/02/12 02:34:01;;;;;;;25.50;17.30;;;;;;;2.73;81.45;98382.13;108963;1249;99989;-71
2023/02/12 02:36:44;;;;;;;29.40;17.70;;;;;;;2.74;81.63;98383.52;108987;1249;95578;-72
2023/02/12 02:39:47;;;;;;;29.30;16.90;;;;;;;2.72;81.55;98391.69;108924;1250;95986;-73
2023/02/12 02:42:35;;;;;;;23.40;16.20;;;;;;;2.70;81.56;98398.75;108942;1250;103527;-71
2023/02/12 02:45:15;;;;;;;25.20;15.40;;;;;;;2.69;81.48;98402.06;109049;1250;101610;-72
2023/02/12 02:47:48;;;;;;;24.60;14.70;;;;;;;2.70;81.51;98407.65;109011;1249;99904;-72
2023/02/12 02:50:23;;;;;;;19.20;13.70;;;;;;;2.68;81.55;98411.03;109003;1250;95547;-72
2023/02/12 02:53:00;;;;;;;22.50;14.40;;;;;;;2.66;81.73;98417.63;108825;1251;96008;-74
2023/02/12 02:55:33;;;;;;;26.80;14.90;;;;;;;2.65;81.70;98425.76;108695;1250;103497;-73
2023/02/12 02:58:14;;;;;;;24.50;14.00;;;;;;;2.63;81.87;98416.83;109039;1249;101596;-72
2023/02/12 03:00:48;;;;;;;23.60;15.80;;;;;;;2.62;82.05;98415.70;108717;1250;99945;-72
2023/02/12 03:03:34;;;;;;;23.90;16.00;;;;;;;2.62;81.89;98419.94;109026;1250;95848;-72
2023/02/12 03:06:12;;;;;;;23.60;15.40;;;;;;;2.64;81.98;98426.88;108851;1251;95631;-71
2023/02/12 03:08:47;;;;;;;25.10;15.50;;;;;;;2.65;82.06;98428.92;109058;1250;103779;-71
2023/02/12 03:11:24;;;;;;;25.30;16.50;;;;;;;2.64;82.03;98427.75;108989;1250;101392;-72
2023/02/12 03:13:59;;;;;;;25.50;16.40;;;;;;;2.64;82.05;98422.83;108993;1251;99933;-72
2023/02/12 03:16:31;;;;;;;26.50;17.70;;;;;;;2.65;82.04;98433.38;109012;1250;95594;-71
2023/02/12 03:19:06;;;;;;;22.50;13.80;;;;;;;2.67;82.02;98436.35;108992;1249;95602;-70
2023/02/12 03:21:47;;;;;;;21.20;14.00;;;;;;;2.66;82.01;98427.55;109028;1250;103746;-71
2023/02/12 03:24:50;;;;;;;17.50;11.80;;;;;;;2.62;81.96;98431.52;109027;1250;101471;-74
2023/02/12 03:27:27;;;;;;;18.20;13.30;;;;;;;2.59;81.99;98437.85;108286;1258;99905;-71
2023/02/12 03:29:57;;;;;;;17.90;12.50;;;;;;;2.59;81.96;98436.61;108176;1258;95670;-71
2023/02/12 03:32:41;;;;;;;18.30;11.50;;;;;;;2.61;82.03;98443.00;108235;1258;96136;-71
2023/02/12 03:35:18;;;;;;;17.20;11.50;;;;;;;2.64;81.98;98449.12;108145;1259;103075;-73
2023/02/12 03:38:01;;;;;;;20.10;13.30;;;;;;;2.68;81.98;98454.80;108141;1260;100480;-72
2023/02/12 03:40:38;;;;;;;20.80;13.70;;;;;;;2.69;81.95;98462.31;108208;1259;100095;-72
2023/02/12 03:43:23;;;;;;;17.60;12.10;;;;;;;2.68;81.83;98462.61;108290;1258;95669;-72
2023/02/12 03:46:47;;;;;;;21.80;12.30;;;;;;;2.67;81.76;98464.23;108194;1259;96668;-71
2023/02/12 03:49:28;;;;;;;20.40;12.80;;;;;;;2.66;81.78;98475.02;107979;1263;103575;-71
2023/02/12 03:51:57;;;;;;;19.30;12.90;;;;;;;2.64;81.76;98484.15;107944;1263;101336;-71
2023/02/12 03:54:26;;;;;;;19.90;13.20;;;;;;;2.62;81.65;98485.37;107951;1263;102905;-73
2023/02/12 03:57:05;;;;;;;17.20;11.70;;;;;;;2.60;81.67;98489.80;107946;1264;95748;-71
2023/02/12 03:59:36;;;;;;;16.60;11.70;;;;;;;2.58;81.72;98496.16;108006;1263;95672;-71
2023/02/12 04:02:04;;;;;;;19.60;12.40;;;;;;;2.56;81.70;98497.20;107982;1263;112329;-71
2023/02/12 04:04:33;;;;;;;16.10;10.90;;;;;;;2.53;81.74;98499.95;108133;1262;101452;-73
2023/02/12 04:07:02;;;;;;;16.40;10.40;;;;;;;2.51;81.91;98502.09;108280;1257;100074;-72
2023/02/12 04:09:32;;;;;;;14.90;9.10;;;;;;;2.53;81.93;98505.86;108270;1257;95962;-72
2023/02/12 04:12:03;;;;;;;13.20;10.20;;;;;;;2.52;81.95;98510.71;108290;1257;96595;-74
2023/02/12 04:14:46;;;;;;;16.20;10.60;;;;;;;2.51;82.04;98523.98;108346;1257;103391;-71
2023/02/12 04:17:39;;;;;;;18.50;11.50;;;;;;;2.51;82.13;98535.33;108280;1259;101282;-71
2023/02/12 04:20:21;;;;;;;;;;;;;;;2.53;82.13;98543.53;108224;1257;99966;-71
2023/02/12 04:23:16;;;;;;;15.60;11.50;;;;;;;2.51;82.15;98541.17;108255;1257;95639;-71
2023/02/12 04:26:16;;;;;;;14.50;10.30;;;;;;;2.50;82.02;98533.67;108705;1251;96055;-71
2023/02/12 04:29:05;;;;;;;15.40;10.70;;;;;;;2.50;82.08;98536.27;108994;1250;103406;-71
2023/02/12 04:31:41;;;;;;;18.60;11.20;;;;;;;2.52;82.11;98544.68;109051;1249;101200;-71
2023/02/12 04:34:17;;;;;;;16.60;12.00;;;;;;;2.54;82.07;98552.27;108965;1250;99846;-71
2023/02/12 04:36:56;;;;;;;21.40;13.80;;;;;;;2.58;82.07;98560.52;109020;1250;95600;-72
2023/02/12 04:39:29;;;;;;;21.00;14.70;;;;;;;2.61;82.14;98563.60;109060;1250;95974;-70
2023/02/12 04:42:04;;;;;;;22.70;13.70;;;;;;;2.65;82.20;98572.88;109047;1249;103586;-71
2023/02/12 04:44:35;;;;;;;16.70;11.10;;;;;;;2.66;82.29;98575.23;109041;1250;101953;-71
2023/02/12 04:47:03;;;;;;;17.70;12.50;;;;;;;2.68;82.08;98577.20;108976;1249;99333;-73
2023/02/12 04:49:31;;;;;;;18.70;12.00;;;;;;;2.69;82.04;98585.46;109001;1249;95598;-74
2023/02/12 04:52:00;;;;;;;20.20;13.20;;;;;;;2.67;81.98;98595.84;109048;1250;95538;-71
2023/02/12 04:54:28;;;;;;;20.10;13.00;;;;;;;2.64;82.03;98597.32;109003;1250;103689;-72
2023/02/12 04:56:56;;;;;;;21.40;12.90;;;;;;;2.65;82.01;98597.24;108667;1250;101452;-72
2023/02/12 04:59:24;;;;;;;19.20;13.20;;;;;;;2.67;81.95;98595.63;108985;1250;99895;-74
2023/02/12 05:01:53;;;;;;;20.80;13.00;;;;;;;2.69;81.96;98601.87;108971;1250;95549;-71
2023/02/12 05:04:21;;;;;;;21.40;14.20;;;;;;;2.70;82.03;98603.17;108669;1251;96608;-74
2023/02/12 05:06:49;;;;;;;22.30;12.90;;;;;;;2.71;81.90;98595.07;108933;1250;103641;-73
2023/02/12 05:09:20;;;;;;;16.30;11.20;;;;;;;2.71;81.86;98595.80;109038;1250;101302;-72
2023/02/12 05:11:48;;;;;;;16.70;11.50;;;;;;;2.71;81.84;98605.26;108966;1250;100189;-75
2023/02/12 05:14:16;;;;;;;21.20;12.60;;;;;;;2.67;81.59;98615.38;109005;1249;95640;-72
2023/02/12 05:16:44;;;;;;;21.40;13.70;;;;;;;2.63;81.69;98621.25;108985;1249;95987;-71
2023/02/12 05:19:12;;;;;;;23.10;13.80;;;;;;;2.62;81.72;98625.56;109005;1250;102122;-72
2023/02/12 05:21:40;;;;;;;25.80;14.20;;;;;;;2.64;81.75;98632.70;109044;1250;101350;-72
2023/02/12 05:24:09;;;;;;;22.30;13.90;;;;;;;2.65;81.73;98631.70;108948;1250;99862;-72
2023/02/12 05:26:37;;;;;;;22.50;12.80;;;;;;;2.66;81.70;98638.20;109016;1249;95620;-71
2023/02/12 05:29:05;;;;;;;18.00;11.10;;;;;;;2.67;81.70;98639.37;109021;1250;95981;-72
2023/02/12 05:31:34;;;;;;;17.10;10.90;;;;;;;2.67;81.74;98640.95;109024;1250;103522;-73
2023/02/12 05:34:02;;;;;;;20.20;12.10;;;;;;;2.64;81.61;98651.21;109038;1250;101359;-73
2023/02/12 05:36:30;;;;;;;23.10;12.00;;;;;;;2.62;81.71;98656.17;108993;1249;99988;-71
2023/02/12 05:39:00;;;;;;;19.10;11.80;;;;;;;2.63;81.76;98658.23;108940;1250;95563;-72
2023/02/12 05:41:33;;;;;;;17.40;11.40;;;;;;;2.64;81.80;98658.83;109003;1249;96086;-74
2023/02/12 05:44:05;;;;;;;17.40;11.70;;;;;;;2.66;81.68;98658.80;109012;1250;103491;-71
2023/02/12 05:46:34;;;;;;;;;;;;;;;2.66;81.61;98657.95;109005;1250;101313;-72
2023/02/12 05:49:02;;;;;;;17.80;11.00;;;;;;;2.62;81.46;98662.40;108959;1251;99778;-71
2023/02/12 05:51:31;;;;;;;21.20;10.60;;;;;;;2.60;81.54;98664.46;108751;1250;95613;-72
2023/02/12 05:54:02;;;;;;;19.70;11.30;;;;;;;2.53;81.45;98663.47;108717;1251;96063;-73
2023/02/12 05:56:33;;;;;;;15.80;8.50;;;;;;;2.46;81.28;98672.77;109021;1250;103040;-72
2023/02/12 05:59:07;;;;;;;21.10;12.10;;;;;;;2.42;81.27;98675.92;109006;1249;101253;-74
2023/02/12 06:01:42;;;;;;;21.40;11.80;;;;;;;2.42;81.36;98673.23;108970;1249;99452;-71
2023/02/12 06:04:22;;;;;;;13.30;8.80;;;;;;;2.40;81.18;98668.98;108480;1251;95744;-71
2023/02/12 06:06:52;;;;;;;14.90;9.40;;;;;;;2.38;81.01;98674.52;109010;1250;95989;-72
2023/02/12 06:09:20;;;;;;;16.30;9.40;;;;;;;2.37;80.79;98680.08;109040;1249;103100;-72
2023/02/12 06:11:48;;;;;;;16.20;9.30;;;;;;;2.39;80.67;98686.19;108998;1250;101287;-73
2023/02/12 06:14:19;;;;;;;15.80;8.30;;;;;;;2.39;80.55;98687.90;108688;1251;99999;-71
2023/02/12 06:16:49;;;;;;;16.00;9.10;;;;;;;2.35;80.40;98706.54;108997;1250;95850;-72
2023/02/12 06:19:18;;;;;;;21.90;10.10;;;;;;;2.33;80.27;98710.47;108991;1249;96138;-72
2023/02/12 06:21:46;;;;;;;18.40;9.70;;;;;;;2.31;80.18;98707.42;109022;1250;103631;-72
2023/02/12 06:24:16;;;;;;;17.40;8.80;;;;;;;2.30;79.94;98713.20;109034;1249;101463;-72
2023/02/12 06:26:45;;;;;;;17.60;9.00;;;;;;;2.29;79.87;98716.36;108730;1251;98970;-72
2023/02/12 06:29:13;;;;;;;15.80;8.30;;;;;;;2.29;79.95;98721.86;109000;1250;95581;-72
2023/02/12 06:31:41;;;;;;;15.10;8.30;;;;;;;2.28;79.86;98726.72;108959;1251;97032;-75
2023/02/12 06:34:11;;;;;;;15.90;9.20;;;;;;;2.28;79.76;98735.77;109005;1250;103267;-72
2023/02/12 06:36:43;;;;;;;15.70;8.90;;;;;;;2.27;79.76;98741.32;109026;1250;101310;-72
2023/02/12 06:39:13;;;;;;;14.40;8.70;;;;;;;2.24;79.82;98745.55;108960;1250;100579;-75
2023/02/12 06:41:42;;;;;;;20.80;8.00;;;;;;;2.23;79.71;98744.56;108962;1249;95802;-72
2023/02/12 06:44:12;;;;;;;20.60;8.30;;;;;;;2.22;79.58;98746.79;108492;1250;95756;-72
2023/02/12 06:46:40;;;;;;;17.70;9.10;;;;;;;2.21;79.59;98753.56;108979;1250;103506;-72
2023/02/12 06:49:12;;;;;;;17.30;10.60;;;;;;;2.22;79.76;98757.89;108959;1251;101312;-72
2023/02/12 06:51:40;;;;;;;16.70;9.10;;;;;;;2.21;79.70;98760.33;108980;1250;100601;-75
2023/02/12 06:54:16;;;;;;;14.60;8.20;;;;;;;2.20;79.65;98761.45;108659;1251;95981;-71
2023/02/12 06:56:45;;;;;;;15.00;7.70;;;;;;;2.23;79.57;98761.94;109009;1249;96042;-75
2023/02/12 06:59:15;;;;;;;23.80;12.50;;;;;;;2.27;79.61;98769.23;108858;1250;103567;-72
2023/02/12 07:01:44;;;;;;;17.70;10.10;;;;;;;2.28;79.36;98770.90;108997;1250;101011;-72
2023/02/12 07:04:12;;;;;;;21.20;10.10;;;;;;;2.32;79.50;98768.10;108981;1249;108279;-72
2023/02/12 07:06:40;;;;;;;16.80;9.90;;;;;;;2.36;79.50;98766.02;108951;1250;95898;-75
2023/02/12 07:09:09;;;;;;;17.70;9.40;;;;;;;2.41;79.55;98769.68;108981;1249;96004;-72
2023/02/12 07:11:38;;;;;;;17.00;9.40;;;;;;;2.46;79.53;98768.13;109034;1251;103645;-72
2023/02/12 07:14:07;;;;;;;23.50;11.10;;;;;;;2.50;79.71;98767.68;109030;1250;101243;-72
2023/02/12 07:16:35;;;;;;;15.80;10.40;;;;;;;2.56;79.71;98778.91;108990;1250;100017;-74
2023/02/12 07:19:03;;;;;;;19.80;10.70;;;;;;;2.61;79.65;98786.17;108947;1249;95971;-73
2023/02/12 07:21:31;;;;;;;23.40;14.10;;;;;;;2.65;79.57;98786.20;108764;1251;96066;-74
2023/02/12 07:24:00;;;;;;;20.50;13.90;;;;;;;2.67;79.70;98789.19;108910;1250;103332;-72
2023/02/12 07:26:28;;;;;;;17.80;10.30;;;;;;;2.70;79.48;98792.83;108634;1249;101299;-75
2023/02/12 07:28:58;;;;;;;17.00;9.40;;;;;;;2.74;79.28;98794.64;108827;1251;108517;-74
2023/02/12 07:31:26;;;;;;;17.20;9.30;;;;;;;2.72;78.90;98792.33;108848;1251;95563;-73
2023/02/12 07:33:56;;;;;;;21.00;9.50;;;;;;;2.72;78.64;98796.78;108855;1251;96030;-72
2023/02/12 07:36:26;;;;;;;17.70;9.90;;;;;;;2.72;78.63;98795.33;108642;1251;103184;-72
2023/02/12 07:38:55;;;;;;;14.00;8.80;;;;;;;2.72;78.48;98796.95;108808;1250;100547;-72
2023/02/12 07:43:36;;;;;;;16.00;8.10;;;;;;;2.80;78.49;98797.64;102564;1286;635939;-75
2023/02/12 07:46:09;;;;;;;20.90;8.90;;;;;;;2.86;78.31;98801.11;104184;1286;97292;-74
2023/02/12 07:48:37;;;;;;;13.90;8.60;;;;;;;2.88;78.22;98806.05;104723;1266;95845;-74
2023/02/12 07:51:12;;;;;;;16.30;8.50;;;;;;;2.85;78.06;98805.25;103917;1267;98552;-72
2023/02/12 07:53:41;;;;;;;17.00;9.20;;;;;;;2.81;78.11;98812.00;104191;1267;102414;-74
2023/02/12 07:56:17;;;;;;;18.00;10.80;;;;;;;2.80;78.12;98813.98;104221;1269;253733;-74
2023/02/12 07:58:47;;;;;;;21.00;10.30;;;;;;;2.86;78.09;98816.86;104297;1263;95851;-73
2023/02/12 08:01:23;;;;;;;17.60;10.10;;;;;;;2.96;77.98;98819.45;104604;1267;97044;-75
2023/02/12 08:03:51;;;;;;;20.60;11.30;;;;;;;3.06;77.95;98823.94;104544;1276;99581;-72
2023/02/12 08:06:22;;;;;;;21.60;10.20;;;;;;;3.16;77.83;98827.52;104595;1267;101766;-74
2023/02/12 08:08:53;;;;;;;13.90;8.70;;;;;;;3.20;77.60;98829.66;104357;1266;100307;-73
2023/02/12 08:11:22;;;;;;;15.10;8.60;;;;;;;3.18;77.39;98828.17;104338;1266;96686;-72
2023/02/12 08:13:50;;;;;;;21.60;10.80;;;;;;;3.23;77.12;98829.86;104221;1269;96883;-75
2023/02/12 08:16:24;;;;;;;20.70;10.30;;;;;;;3.31;77.11;98835.79;104595;1266;101388;-72
2023/02/12 08:18:54;;;;;;;15.60;9.90;;;;;;;3.38;76.89;98835.44;104354;1266;101825;-75
2023/02/12 08:21:28;;;;;;;20.30;10.00;;;;;;;3.47;76.62;98838.41;104357;1267;100282;-73
2023/02/12 08:23:58;;;;;;;22.40;10.80;;;;;;;3.62;76.65;98844.34;104195;1270;95914;-72
2023/02/12 08:26:28;;;;;;;17.90;9.30;;;;;;;3.72;76.54;98844.35;104465;1266;95863;-72
2023/02/12 08:29:18;;;;;;;18.70;9.30;;;;;;;3.75;76.05;98839.48;104393;1266;101296;-72
2023/02/12 08:31:48;;;;;;;18.40;9.50;;;;;;;3.71;75.76;98838.37;104247;1264;102398;-73
2023/02/12 08:34:20;;;;;;;20.20;9.20;;;;;;;3.71;75.74;98842.36;104257;1269;100521;-73
2023/02/12 08:36:50;;;;;;;13.50;8.40;;;;;;;3.63;75.25;98845.89;104178;1263;96131;-73
2023/02/12 08:39:19;;;;;;;17.40;10.40;;;;;;;3.59;75.19;98849.98;104450;1277;95969;-73
2023/02/12 08:41:47;;;;;;;21.60;11.50;;;;;;;3.67;75.25;98847.88;104533;1269;101365;-74
2023/02/12 08:44:17;;;;;;;18.30;10.20;;;;;;;3.72;75.32;98851.34;104547;1267;101998;-75
2023/02/12 08:46:48;;;;;;;18.60;10.00;;;;;;;3.72;75.37;98853.82;104543;1267;100444;-75
2023/02/12 08:49:22;;;;;;;14.60;8.90;;;;;;;3.71;75.37;98850.01;104454;1268;95961;-73
2023/02/12 08:51:53;;;;;;;16.90;8.90;;;;;;;3.69;75.06;98849.41;104695;1268;95955;-73
2023/02/12 08:54:24;;;;;;;16.10;9.00;;;;;;;3.68;74.99;98852.18;104568;1280;99828;-72
2023/02/12 08:57:01;;;;;;;14.90;8.30;;;;;;;3.73;74.93;98856.25;104515;1263;101805;-72
2023/02/12 08:59:30;;;;;;;11.40;8.00;;;;;;;3.77;74.63;98863.46;104663;1265;100111;-72
2023/02/12 09:01:59;;;;;;;15.60;8.90;;;;;;;3.75;74.72;98867.23;104318;1269;96044;-74
2023/02/12 09:04:28;;;;;;;17.50;8.50;;;;;;;3.80;74.79;98871.25;104674;1262;96774;-72
2023/02/12 09:06:57;;;;;;;15.70;8.10;;;;;;;3.80;74.34;98876.05;104885;1259;101133;-73
2023/02/12 09:09:26;;;;;;;18.00;9.00;;;;;;;3.81;74.40;98879.41;105014;1259;101851;-74
2023/02/12 09:11:54;;;;;;;15.80;8.50;;;;;;;3.89;74.30;98888.10;105072;1257;100372;-73
2023/02/12 09:14:23;;;;;;;14.50;7.90;;;;;;;3.97;74.08;98892.90;105134;1254;96834;-72
2023/02/12 10:06:32;;;;;;;14.70;7.70;;;;;;;3.91;71.21;98944.94;105279;1257;100438;-73
2023/02/12 10:09:35;;;;;;;16.20;8.50;;;;;;;3.80;70.69;98941.81;105157;1267;96526;-73
2023/02/12 10:12:07;;;;;;;;;;;;;;;3.73;70.97;98945.45;105342;1257;96602;-74
2023/02/12 10:14:57;;;;;;;12.50;6.60;;;;;;;3.83;71.11;98948.98;105076;1251;100994;-74
2023/02/12 10:17:34;;;;;;;15.00;7.50;;;;;;;3.88;70.85;98952.77;105122;1257;101828;-74
2023/02/12 10:20:25;;;;;;;12.30;7.40;;;;;;;3.94;70.75;98950.70;105148;1259;99011;-74
2023/02/12 10:23:25;;;;;;;12.80;7.40;;;;;;;3.97;70.36;98949.77;104745;1266;96151;-74
2023/02/12 10:25:55;;;;;;;14.90;8.10;;;;;;;3.85;70.01;98948.60;104948;1263;96187;-72
2023/02/12 10:28:33;;;;;;;14.20;8.00;;;;;;;3.70;70.01;98954.38;104798;1263;101334;-75
2023/02/12 10:31:07;;;;;;;9.60;7.10;;;;;;;3.69;70.24;98956.06;104708;1262;101717;-75
2023/02/12 10:33:45;;;;;;;14.60;8.70;;;;;;;3.72;70.40;98959.60;104654;1261;100365;-75
2023/02/12 10:36:45;;;;;;;12.90;7.70;;;;;;;3.84;70.46;98956.58;104945;1262;96859;-76
2023/02/12 10:39:35;;;;;;;12.20;7.70;;;;;;;3.96;70.03;98956.23;104710;1264;97120;-76
2023/02/12 10:42:20;;;;;;;12.90;7.00;;;;;;;3.91;69.79;98956.97;104625;1262;101445;-76
2023/02/12 10:44:48;;;;;;;15.50;8.60;;;;;;;4.07;69.89;98955.15;104807;1263;101888;-73
2023/02/12 10:47:53;;;;;;;16.20;8.10;;;;;;;4.33;70.10;98954.95;105276;1262;100408;-72
2023/02/12 10:50:45;;;;;;;14.20;8.50;;;;;;;4.60;69.91;98960.39;106069;1262;96024;-74
2023/02/12 10:53:21;;;;;;;14.10;8.40;;;;;;;4.88;69.30;98955.40;104482;1268;95979;-73
2023/02/12 10:55:50;;;;;;;16.50;8.10;;;;;;;5.03;68.66;98954.08;106328;1266;101534;-73
2023/02/12 10:58:24;;;;;;;13.50;7.80;;;;;;;5.18;68.55;98955.02;104430;1266;101884;-74
2023/02/12 11:01:01;;;;;;;16.00;7.80;;;;;;;5.34;68.56;98952.79;104041;1268;100611;-73
2023/02/12 11:03:33;;;;;;;11.50;7.10;;;;;;;5.48;68.22;98949.20;104543;1266;97078;-73
2023/02/12 11:06:16;;;;;;;14.30;7.70;;;;;;;5.57;67.86;98952.23;104352;1263;96074;-74
2023/02/12 11:08:46;;;;;;;14.70;7.70;;;;;;;5.50;67.12;98953.23;104595;1268;100483;-76
2023/02/12 11:11:25;;;;;;;14.00;8.70;;;;;;;5.45;67.28;98949.64;104587;1276;100220;-73
2023/02/12 11:13:58;;;;;;;12.60;8.20;;;;;;;5.57;67.19;98949.23;104410;1265;99177;-73
2023/02/12 11:16:35;;;;;;;15.30;9.30;;;;;;;5.62;66.92;98949.12;104747;1259;95891;-74
2023/02/12 11:19:08;;;;;;;12.70;8.40;;;;;;;5.62;66.55;98949.69;104527;1269;96040;-74
2023/02/12 11:21:37;;;;;;;12.40;8.10;;;;;;;5.47;66.47;98953.49;104539;1268;101503;-74
2023/02/12 11:24:25;;;;;;;12.40;8.20;;;;;;;5.59;66.64;98949.90;104738;1262;101930;-75
2023/02/12 11:27:27;;;;;;;15.40;7.50;;;;;;;5.69;66.13;98953.10;104524;1264;101040;-75
2023/02/12 11:30:19;;;;;;;10.90;7.40;;;;;;;5.73;65.87;98946.42;104395;1268;95999;-75
2023/02/12 11:32:51;;;;;;;13.00;7.70;;;;;;;5.96;65.93;98948.02;104581;1258;96776;-75
2023/02/12 11:35:27;;;;;;;14.90;8.30;;;;;;;6.12;64.97;98950.48;104786;1262;100893;-75
2023/02/12 11:37:58;;;;;;;12.10;7.70;;;;;;;6.07;64.54;98947.16;104467;1261;101903;-76
2023/02/12 11:40:32;;;;;;;18.40;8.80;;;;;;;6.27;64.43;98942.81;104655;1261;98645;-77
2023/02/12 11:43:06;;;;;;;12.40;7.70;;;;;;;6.56;63.93;98941.91;104574;1265;96704;-75
2023/02/12 11:45:43;;;;;;;17.80;8.50;;;;;;;6.57;62.99;98941.08;104653;1260;96008;-76
2023/02/12 11:48:46;;;;;;;14.60;8.20;;;;;;;6.47;63.28;98939.40;104498;1267;100048;-76
2023/02/12 11:51:28;;;;;;;14.80;8.30;;;;;;;6.43;62.59;98943.54;104151;1274;102106;-77
2023/02/12 11:54:00;;;;;;;13.30;6.70;;;;;;;6.35;62.23;98941.85;104572;1280;100541;-75
2023/02/12 11:56:46;;;;;;;10.40;7.00;;;;;;;6.29;62.46;98943.45;104365;1264;97235;-74
2023/02/12 11:59:34;;;;;;;13.70;7.20;;;;;;;6.56;62.50;98949.65;104310;1267;97071;-76
2023/02/12 12:02:12;;;;;;;12.50;7.80;;;;;;;6.58;61.20;98952.41;104176;1271;100067;-75
2023/02/12 12:04:42;;;;;;;10.40;7.40;;;;;;;6.42;61.63;98952.63;104599;1259;100697;-74
2023/02/12 12:07:34;;;;;;;15.60;7.60;;;;;;;6.42;62.02;98949.69;104575;1264;109037;-73
2023/02/12 12:10:48;;;;;;;11.70;7.60;;;;;;;6.56;62.19;98948.88;104784;1282;96802;-74
2023/02/12 12:13:23;;;;;;;15.90;7.30;;;;;;;6.98;62.22;98942.63;103862;1272;95831;-74
2023/02/12 12:22:08;;;;;;;11.20;7.30;;;;;;;7.72;60.89;98935.63;103526;1279;98714;-73
2023/02/12 12:25:03;;;;;;;13.70;8.00;;;;;;;7.85;60.19;98936.45;103824;1279;97811;-76
2023/02/12 12:28:15;;;;;;;14.00;8.10;;;;;;;8.00;60.24;98934.98;103127;1293;97423;-73
2023/02/12 12:31:15;;;;;;;13.80;7.60;;;;;;;8.14;59.83;98932.91;103048;1286;102366;-73
2023/02/12 12:34:04;;;;;;;13.60;7.10;;;;;;;8.23;59.50;98932.71;102735;1284;102361;-74
2023/02/12 12:37:04;;;;;;;12.30;6.70;;;;;;;8.47;59.51;98937.00;102841;1282;98926;-74
2023/02/12 12:39:51;;;;;;;13.50;6.70;;;;;;;8.68;59.04;98938.61;102800;1283;96677;-74
2023/02/12 12:42:31;;;;;;;15.30;7.80;;;;;;;8.77;58.63;98932.45;102826;1286;97249;-73
2023/02/12 12:45:04;;;;;;;16.30;7.60;;;;;;;8.68;57.30;98928.88;102637;1284;101323;-74
2023/02/12 12:48:08;;;;;;;17.40;8.50;;;;;;;8.21;57.25;98925.02;102831;1295;101720;-76
2023/02/12 12:50:59;;;;;;;17.60;7.90;;;;;;;8.05;58.09;98923.25;103289;1283;100531;-74
2023/02/12 12:53:58;;;;;;;16.00;9.20;;;;;;;8.17;58.10;98923.32;104078;1270;97521;-74